createdAt,value
2019-05-10T00:01:31.264Z,96.66
2019-05-10T00:04:17.732Z,97.07
2019-05-10T00:07:04.239Z,97.22
2019-05-10T00:09:32.123Z,97.58
2019-05-10T00:12:02.758Z,97.61
2019-05-10T00:14:35.581Z,97.40
2019-05-10T00:17:05.877Z,97.18
2019-05-10T00:19:34.481Z,97.01
2019-05-10T00:22:05.808Z,96.87
2019-05-10T00:24:34.342Z,97.31
2019-05-10T00:27:05.071Z,98.20
2019-05-10T00:29:33.679Z,99.11
2019-05-10T00:32:03.826Z,99.61
2019-05-10T00:34:35.400Z,99.78
2019-05-10T00:37:04.438Z,99.53
2019-05-10T00:39:34.693Z,99.47
2019-05-10T00:42:06.348Z,98.95
2019-05-10T00:44:35.106Z,98.40
2019-05-10T00:47:03.922Z,98.17
2019-05-10T00:49:35.413Z,97.89
2019-05-10T00:52:04.114Z,97.59
2019-05-10T00:54:33.060Z,97.81
2019-05-10T00:57:04.352Z,98.08
2019-05-10T00:59:34.617Z,97.97
2019-05-10T01:02:05.892Z,97.81
2019-05-10T01:04:34.449Z,97.64
2019-05-10T01:07:04.653Z,98.00
2019-05-10T01:09:35.930Z,98.02
2019-05-10T01:12:04.957Z,98.06
2019-05-10T01:14:33.792Z,98.06
2019-05-10T01:17:04.331Z,97.72
2019-05-10T01:19:34.501Z,97.27
2019-05-10T01:22:04.826Z,96.67
2019-05-10T01:24:33.355Z,95.66
2019-05-10T01:27:01.990Z,94.19
2019-05-10T01:29:32.557Z,94.30
2019-05-10T01:32:02.729Z,91.39
2019-05-10T01:34:32.969Z,92.33
2019-05-10T01:37:01.588Z,92.65
2019-05-10T01:39:31.988Z,92.63
2019-05-10T01:42:01.421Z,92.56
2019-05-10T01:44:31.873Z,93.82
2019-05-10T01:47:00.675Z,94.58
2019-05-10T01:49:29.277Z,94.87
2019-05-10T01:51:57.814Z,95.25
2019-05-10T01:54:26.332Z,95.97
2019-05-10T01:56:54.901Z,96.29
2019-05-10T01:59:23.510Z,96.40
2019-05-10T02:01:52.044Z,96.56
2019-05-10T02:04:20.565Z,96.58
2019-05-10T02:06:49.171Z,96.63
2019-05-10T02:09:17.790Z,96.52
2019-05-10T02:11:46.386Z,96.42
2019-05-10T02:14:14.916Z,96.03
2019-05-10T02:16:43.714Z,95.70
2019-05-10T02:19:12.262Z,95.88
2019-05-10T02:21:41.082Z,95.95
2019-05-10T02:24:09.894Z,95.55
2019-05-10T02:26:38.523Z,95.43
2019-05-10T02:29:07.060Z,93.36
2019-05-10T02:31:35.755Z,94.05
2019-05-10T02:34:04.367Z,94.87
2019-05-10T02:36:34.450Z,94.90
2019-05-10T02:39:06.539Z,95.00
2019-05-10T02:41:35.159Z,94.78
2019-05-10T02:44:03.687Z,94.08
2019-05-10T02:46:33.741Z,94.22
2019-05-10T02:49:03.829Z,92.12
2019-05-10T02:51:34.023Z,92.26
2019-05-10T02:54:05.614Z,93.39
2019-05-10T02:56:34.898Z,93.56
2019-05-10T02:59:03.862Z,93.18
2019-05-10T03:01:32.705Z,92.96
2019-05-10T03:04:03.705Z,92.63
2019-05-10T03:06:34.412Z,93.04
2019-05-10T03:09:06.614Z,93.85
2019-05-10T03:11:46.795Z,94.20
2019-05-10T03:14:17.620Z,94.33
2019-05-10T03:16:49.341Z,92.74
2019-05-10T03:19:20.198Z,92.74
2019-05-10T03:21:51.780Z,92.32
2019-05-10T03:24:20.643Z,91.09
2019-05-10T03:26:51.273Z,90.60
2019-05-10T03:29:19.565Z,91.55
2019-05-10T03:31:48.181Z,92.47
2019-05-10T03:34:17.247Z,94.50
2019-05-10T03:36:45.783Z,96.39
2019-05-10T03:39:14.346Z,97.24
2019-05-10T03:41:43.490Z,97.99
2019-05-10T03:44:12.186Z,98.29
2019-05-10T03:46:40.744Z,98.12
2019-05-10T03:49:09.303Z,98.46
2019-05-10T03:51:37.854Z,98.72
2019-05-10T03:54:06.441Z,98.80
2019-05-10T03:56:35.056Z,98.80
2019-05-10T03:59:03.675Z,98.99
2019-05-10T04:01:33.836Z,99.40
2019-05-10T04:04:09.365Z,99.40
2019-05-10T04:06:35.874Z,99.11
2019-05-10T04:09:06.545Z,98.22
2019-05-10T04:11:35.126Z,97.53
2019-05-10T04:14:03.969Z,96.51
2019-05-10T04:16:35.975Z,96.77
2019-05-10T04:19:04.507Z,96.73
2019-05-10T04:21:35.815Z,97.29
2019-05-10T04:24:04.497Z,97.83
2019-05-10T04:26:36.186Z,97.96
2019-05-10T04:29:04.902Z,98.46
2019-05-10T04:31:33.506Z,98.80
2019-05-10T04:34:02.238Z,99.18
2019-05-10T04:36:33.835Z,99.28
2019-05-10T04:39:06.188Z,98.78
2019-05-10T04:41:34.711Z,98.84
2019-05-10T04:44:06.368Z,98.42
2019-05-10T04:46:34.974Z,98.31
2019-05-10T04:49:03.532Z,98.21
2019-05-10T04:51:32.067Z,97.92
2019-05-10T04:54:03.631Z,97.34
2019-05-10T04:56:33.737Z,97.28
2019-05-10T04:59:03.894Z,97.30
2019-05-10T05:01:35.416Z,97.38
2019-05-10T05:04:04.096Z,97.06
2019-05-10T05:06:32.723Z,97.12
2019-05-10T05:09:02.983Z,96.84
2019-05-10T05:11:31.592Z,96.08
2019-05-10T05:14:00.196Z,95.86
2019-05-10T05:16:28.719Z,96.25
2019-05-10T05:18:57.312Z,96.41
2019-05-10T05:21:25.929Z,96.72
2019-05-10T05:23:54.543Z,96.92
2019-05-10T05:26:23.159Z,96.79
2019-05-10T05:28:51.982Z,97.17
2019-05-10T05:31:20.508Z,97.53
2019-05-10T05:33:49.107Z,97.13
2019-05-10T05:36:17.723Z,96.75
2019-05-10T05:38:47.674Z,96.42
2019-05-10T05:41:16.508Z,96.82
2019-05-10T05:43:46.191Z,97.50
2019-05-10T05:46:15.752Z,96.47
2019-05-10T05:48:44.285Z,96.36
2019-05-10T05:51:12.818Z,96.04
2019-05-10T05:53:42.853Z,96.02
2019-05-10T05:56:14.136Z,94.50
2019-05-10T05:58:44.695Z,93.16
2019-05-10T06:01:24.390Z,94.75
2019-05-10T06:03:45.859Z,93.83
2019-05-10T06:06:21.248Z,93.51
2019-05-10T06:08:44.746Z,93.13
2019-05-10T06:11:13.268Z,92.70
2019-05-10T06:13:42.096Z,93.31
2019-05-10T06:16:13.209Z,92.83
2019-05-10T06:18:41.526Z,92.83
2019-05-10T06:21:11.177Z,93.83
2019-05-10T06:23:39.726Z,91.65
2019-05-10T06:26:21.030Z,90.63
2019-05-10T06:31:09.124Z,88.80
2019-05-10T06:33:39.756Z,85.24
2019-05-10T06:36:08.091Z,88.68
2019-05-10T06:38:36.699Z,85.09
2019-05-10T06:41:10.297Z,87.96
2019-05-10T06:43:35.658Z,87.84
2019-05-10T06:46:04.371Z,85.33
2019-05-10T06:48:34.437Z,83.66
2019-05-10T06:51:09.256Z,86.96
2019-05-10T06:53:34.924Z,86.62
2019-05-10T06:56:03.558Z,87.08
2019-05-10T06:58:36.352Z,88.84
2019-05-10T07:01:05.272Z,86.13
2019-05-10T07:03:33.785Z,86.32
2019-05-10T07:06:02.635Z,83.74
2019-05-10T07:08:43.714Z,86.26
2019-05-10T07:11:03.556Z,86.95
2019-05-10T07:13:32.405Z,87.13
2019-05-10T07:16:01.852Z,82.97
2019-05-10T07:18:30.950Z,86.05
2019-05-10T07:21:00.830Z,81.51
2019-05-10T07:23:47.744Z,81.74
2019-05-10T07:26:17.630Z,81.71
2019-05-10T07:28:51.953Z,81.08
2019-05-10T07:31:17.139Z,79.45
2019-05-10T07:33:45.697Z,77.96
2019-05-10T07:36:15.564Z,77.52
2019-05-10T07:38:44.676Z,76.97
2019-05-10T07:41:13.203Z,76.62
2019-05-10T07:43:41.794Z,78.59
2019-05-10T07:46:10.416Z,75.32
2019-05-10T07:48:41.354Z,74.64
2019-05-10T07:51:09.199Z,77.43
2019-05-10T07:53:37.802Z,74.15
2019-05-10T07:56:07.868Z,77.45
2019-05-10T07:58:38.343Z,75.74
2019-05-10T08:01:06.896Z,75.29
2019-05-10T08:03:40.501Z,74.99
2019-05-10T08:06:08.215Z,77.52
2019-05-10T08:08:38.900Z,76.05
2019-05-10T08:11:08.591Z,75.30
2019-05-10T08:13:39.317Z,73.41
2019-05-10T08:16:11.858Z,74.63
2019-05-10T08:18:42.032Z,77.60
2019-05-10T08:21:20.933Z,76.08
2019-05-10T08:23:41.070Z,71.49
2019-05-10T08:26:11.067Z,69.68
2019-05-10T08:28:44.439Z,73.56
2019-05-10T08:31:12.406Z,74.77
2019-05-10T08:33:46.289Z,71.95
2019-05-10T08:36:12.127Z,70.96
2019-05-10T08:38:46.205Z,74.67
2019-05-10T08:41:16.508Z,75.12
2019-05-10T08:43:43.017Z,71.61
2019-05-10T08:46:12.199Z,70.92
2019-05-10T08:48:46.724Z,76.10
2019-05-10T08:51:12.508Z,71.28
2019-05-10T08:53:42.088Z,73.33
2019-05-10T08:56:15.938Z,69.01
2019-05-10T08:58:42.210Z,72.34
2019-05-10T09:01:20.840Z,68.60
2019-05-10T09:03:42.023Z,77.25
2019-05-10T09:06:14.321Z,70.46
2019-05-10T09:08:43.194Z,70.76
2019-05-10T09:11:11.568Z,74.47
2019-05-10T09:13:42.636Z,71.93
2019-05-10T09:16:10.550Z,71.89
2019-05-10T09:18:46.187Z,67.22
2019-05-10T09:21:13.551Z,70.92
2019-05-10T09:23:39.756Z,66.88
2019-05-10T09:26:15.995Z,65.62
2019-05-10T09:28:42.168Z,66.05
2019-05-10T09:31:18.657Z,67.39
2019-05-10T09:33:49.148Z,70.57
2019-05-10T09:36:12.444Z,72.17
2019-05-10T09:38:45.722Z,71.90
2019-05-10T09:41:12.035Z,73.87
2019-05-10T09:43:48.369Z,74.81
2019-05-10T09:46:11.465Z,71.67
2019-05-10T09:48:44.670Z,69.87
2019-05-10T09:51:13.764Z,69.14
2019-05-10T09:53:41.813Z,68.02
2019-05-10T09:56:10.426Z,67.19
2019-05-10T09:58:39.002Z,68.55
2019-05-10T10:01:14.817Z,67.31
2019-05-10T10:03:43.066Z,68.72
2019-05-10T10:06:11.165Z,64.96
2019-05-10T10:08:43.567Z,61.58
2019-05-10T10:11:15.121Z,65.23
2019-05-10T10:13:43.529Z,64.88
2019-05-10T10:16:14.487Z,65.11
2019-05-10T10:18:40.241Z,68.76
2019-05-10T10:21:10.374Z,70.83
2019-05-10T10:23:39.608Z,75.97
2019-05-10T10:26:12.765Z,77.97
2019-05-10T10:28:39.713Z,77.04
2019-05-10T10:31:08.854Z,76.22
2019-05-10T10:33:38.118Z,77.10
2019-05-10T10:36:09.940Z,76.93
2019-05-10T10:38:45.444Z,74.18
2019-05-10T10:41:08.318Z,75.32
2019-05-10T10:43:37.368Z,69.25
2019-05-10T10:46:12.097Z,68.80
2019-05-10T10:48:36.980Z,69.99
2019-05-10T10:51:08.087Z,66.27
2019-05-10T10:53:36.237Z,67.31
2019-05-10T10:56:07.457Z,65.64
2019-05-10T10:58:35.125Z,65.95
2019-05-10T11:01:10.796Z,65.05
2019-05-10T11:03:33.950Z,68.11
2019-05-10T11:06:05.552Z,65.78
2019-05-10T11:08:34.104Z,66.58
2019-05-10T11:11:05.628Z,63.11
2019-05-10T11:13:44.110Z,60.31
2019-05-10T11:16:10.872Z,64.42
2019-05-10T11:18:34.793Z,63.71
2019-05-10T11:21:06.086Z,61.55
2019-05-10T11:23:39.085Z,58.75
2019-05-10T11:26:05.088Z,59.91
2019-05-10T11:28:38.656Z,59.12
2019-05-10T11:31:03.877Z,57.52
2019-05-10T11:33:35.941Z,57.57
2019-05-10T11:36:08.629Z,58.53
2019-05-10T11:38:35.122Z,59.70
2019-05-10T11:41:07.059Z,64.06
2019-05-10T11:43:34.415Z,62.13
2019-05-10T11:46:04.628Z,59.83
2019-05-10T11:48:37.382Z,62.56
2019-05-10T11:51:12.276Z,62.05
2019-05-10T11:53:36.908Z,61.35
2019-05-10T11:56:07.794Z,64.36
2019-05-10T12:03:36.798Z,60.81
2019-05-10T12:06:08.990Z,57.96
2019-05-10T12:08:36.128Z,55.92
2019-05-10T12:11:18.099Z,54.27
2019-05-10T12:13:35.286Z,56.14
2019-05-10T12:16:03.885Z,55.81
2019-05-10T12:18:36.288Z,53.65
2019-05-10T12:21:09.606Z,53.87
2019-05-10T12:23:45.806Z,52.36
2019-05-10T12:26:05.895Z,59.97
2019-05-10T12:26:19.490Z,60.88
2019-05-10T12:28:36.590Z,53.87
2019-05-10T12:31:07.591Z,53.35
2019-05-10T12:33:35.951Z,53.57
2019-05-10T12:36:04.678Z,55.70
2019-05-10T12:38:38.427Z,52.89
2019-05-10T12:41:07.553Z,52.95
2019-05-10T12:43:36.105Z,58.55
2019-05-10T12:46:04.804Z,54.48
2019-05-10T12:48:35.946Z,55.86
2019-05-10T12:51:08.261Z,58.26
2019-05-10T12:53:47.870Z,59.71
2019-05-10T12:56:13.498Z,61.22
2019-05-10T12:58:42.090Z,58.24
2019-05-10T13:01:10.733Z,59.30
2019-05-10T13:03:39.341Z,56.24
2019-05-10T13:06:07.894Z,54.66
2019-05-10T13:08:36.469Z,55.54
2019-05-10T13:11:05.267Z,56.10
2019-05-10T13:13:33.904Z,54.03
2019-05-10T13:16:10.011Z,53.21
2019-05-10T13:18:49.930Z,53.96
2019-05-10T13:21:07.789Z,55.15
2019-05-10T13:23:35.871Z,56.38
2019-05-10T13:26:04.589Z,56.27
2019-05-10T13:28:36.481Z,57.20
2019-05-10T13:31:07.130Z,60.55
2019-05-10T13:33:42.111Z,57.81
2019-05-10T13:36:06.511Z,57.86
2019-05-10T13:38:36.893Z,59.98
2019-05-10T13:41:05.460Z,56.68
2019-05-10T13:43:34.081Z,57.87
2019-05-10T13:46:02.637Z,56.69
2019-05-10T13:48:32.807Z,59.48
2019-05-10T13:51:02.974Z,55.89
2019-05-10T13:53:31.603Z,54.85
2019-05-10T13:56:00.217Z,57.34
2019-05-10T13:58:28.750Z,52.57
2019-05-10T14:00:57.567Z,55.05
2019-05-10T14:03:26.372Z,56.72
2019-05-10T14:05:54.902Z,53.14
2019-05-10T14:08:23.511Z,53.11
2019-05-10T14:10:55.892Z,56.95
2019-05-10T14:13:22.792Z,52.78
2019-05-10T14:15:51.404Z,53.37
2019-05-10T14:18:19.938Z,50.52
2019-05-10T14:20:48.465Z,50.29
2019-05-10T14:23:17.971Z,52.77
2019-05-10T14:25:46.682Z,50.27
2019-05-10T14:28:17.303Z,48.23
2019-05-10T14:30:46.895Z,49.88
2019-05-10T14:33:17.276Z,49.52
2019-05-10T14:35:46.235Z,50.76
2019-05-10T14:38:14.861Z,49.57
2019-05-10T14:40:43.392Z,49.71
2019-05-10T14:43:12.087Z,49.03
2019-05-10T14:45:40.710Z,49.65
2019-05-10T14:48:09.262Z,49.63
2019-05-10T14:50:37.827Z,50.13
2019-05-10T14:53:06.437Z,49.75
2019-05-10T14:55:36.828Z,52.04
2019-05-10T14:58:05.307Z,53.67
2019-05-10T15:00:33.900Z,55.93
2019-05-10T15:03:05.734Z,53.96
2019-05-10T15:05:36.332Z,52.64
2019-05-10T15:08:04.610Z,52.49
2019-05-10T15:10:39.625Z,53.55
2019-05-10T15:13:06.458Z,53.61
2019-05-10T15:15:37.132Z,51.02
2019-05-10T15:18:05.410Z,54.30
2019-05-10T15:20:35.991Z,50.82
2019-05-10T15:23:04.399Z,51.56
2019-05-10T15:25:34.538Z,53.79
2019-05-10T15:28:05.810Z,52.04
2019-05-10T15:30:39.322Z,53.90
2019-05-10T15:33:05.042Z,53.56
2019-05-10T15:35:33.857Z,52.85
2019-05-10T15:38:05.152Z,54.18
2019-05-10T15:40:38.615Z,55.38
2019-05-10T15:43:04.043Z,58.25
2019-05-10T15:45:32.570Z,63.79
2019-05-10T15:48:04.492Z,63.27
2019-05-10T15:50:38.477Z,65.19
2019-05-10T15:53:06.316Z,66.81
2019-05-10T15:55:35.041Z,68.33
2019-05-10T15:58:03.611Z,71.65
2019-05-10T16:00:39.626Z,72.54
2019-05-10T16:03:04.355Z,69.10
2019-05-10T16:05:42.965Z,71.91
2019-05-10T16:08:04.684Z,72.75
2019-05-10T16:10:39.540Z,76.57
2019-05-10T16:13:03.574Z,80.35
2019-05-10T16:15:33.696Z,83.60
2019-05-10T16:18:03.725Z,85.38
2019-05-10T16:20:37.387Z,85.04
2019-05-10T16:23:08.737Z,85.86
2019-05-10T16:25:41.224Z,88.93
2019-05-10T16:28:06.610Z,89.67
2019-05-10T16:30:36.565Z,88.92
2019-05-10T16:33:09.581Z,85.69
2019-05-10T16:35:38.911Z,84.24
2019-05-10T16:38:05.827Z,87.61
2019-05-10T16:40:34.417Z,87.85
2019-05-10T16:43:06.999Z,85.91
2019-05-10T16:45:35.152Z,86.63
2019-05-10T16:48:05.808Z,89.08
2019-05-10T16:50:34.201Z,89.23
2019-05-10T16:53:05.645Z,88.13
2019-05-10T16:55:41.060Z,85.55
2019-05-10T16:58:09.453Z,87.87
2019-05-10T17:00:40.806Z,86.25
2019-05-10T17:03:07.154Z,79.71
2019-05-10T17:05:35.904Z,80.00
2019-05-10T17:08:05.665Z,84.61
2019-05-10T17:10:35.793Z,78.57
2019-05-10T17:13:06.544Z,79.16
2019-05-10T17:15:39.914Z,76.20
2019-05-10T17:18:10.781Z,74.99
2019-05-10T17:20:35.695Z,78.48
2019-05-10T17:23:08.823Z,78.23
2019-05-10T17:25:35.522Z,76.64
2019-05-10T17:28:04.316Z,76.51
2019-05-10T17:30:34.468Z,77.06
2019-05-10T17:33:06.115Z,79.13
2019-05-10T17:35:36.614Z,78.18
2019-05-10T17:38:08.018Z,79.26
2019-05-10T17:40:35.800Z,81.24
2019-05-10T17:43:04.714Z,82.46
2019-05-10T17:45:40.429Z,78.00
2019-05-10T17:48:08.534Z,82.14
2019-05-10T17:50:36.834Z,76.96
2019-05-10T17:53:05.447Z,77.00
2019-05-10T17:55:34.054Z,76.93
2019-05-10T17:58:05.635Z,77.85
2019-05-10T18:00:34.362Z,79.32
2019-05-10T18:03:04.830Z,79.35
2019-05-10T18:05:36.231Z,79.71
2019-05-10T18:08:09.254Z,75.98
2019-05-10T18:10:41.156Z,77.71
2019-05-10T18:13:09.822Z,82.02
2019-05-10T18:15:38.739Z,74.29
2019-05-10T18:18:07.350Z,72.48
2019-05-10T18:20:41.812Z,74.81
2019-05-10T18:23:06.315Z,74.09
2019-05-10T18:25:34.919Z,75.46
2019-05-10T18:28:03.836Z,73.96
2019-05-10T18:30:33.992Z,77.83
2019-05-10T18:33:06.818Z,74.98
2019-05-10T18:35:35.723Z,78.18
2019-05-10T18:38:04.334Z,76.55
2019-05-10T18:40:34.505Z,77.66
2019-05-10T18:43:05.899Z,75.51
2019-05-10T18:45:34.511Z,76.75
2019-05-10T18:48:04.754Z,75.90
2019-05-10T18:50:39.786Z,76.37
2019-05-10T18:53:06.582Z,77.61
2019-05-10T18:55:35.294Z,79.89
2019-05-10T18:58:04.108Z,82.43
2019-05-10T19:00:32.819Z,84.90
2019-05-10T19:03:03.276Z,85.18
2019-05-10T19:05:34.859Z,86.68
2019-05-10T19:08:05.738Z,87.45
2019-05-10T19:10:34.043Z,87.93
2019-05-10T19:13:06.489Z,88.75
2019-05-10T19:15:35.163Z,88.40
2019-05-10T19:18:03.868Z,88.62
2019-05-10T19:20:33.930Z,87.71
2019-05-10T19:23:05.721Z,86.61
2019-05-10T19:25:37.545Z,85.22
2019-05-10T19:28:04.699Z,85.41
2019-05-10T19:30:33.293Z,85.20
2019-05-10T19:33:02.143Z,86.09
2019-05-10T19:35:35.837Z,86.73
2019-05-10T19:38:04.054Z,85.48
2019-05-10T19:40:32.973Z,86.75
2019-05-10T19:43:01.594Z,86.24
2019-05-10T19:45:31.146Z,86.56
2019-05-10T19:47:59.858Z,87.39
2019-05-10T19:50:30.997Z,88.48
2019-05-10T19:53:03.722Z,87.64
2019-05-10T19:55:29.179Z,88.35
2019-05-10T19:57:57.789Z,88.82
2019-05-10T20:00:26.403Z,87.90
2019-05-10T20:02:55.008Z,88.22
2019-05-10T20:05:23.623Z,88.84
2019-05-10T20:07:52.228Z,88.75
2019-05-10T20:10:20.940Z,90.39
2019-05-10T20:12:49.550Z,91.11
2019-05-10T20:15:18.379Z,91.23
2019-05-10T20:17:47.168Z,92.12
2019-05-10T20:20:15.813Z,92.62
2019-05-10T20:22:44.416Z,93.02
2019-05-10T20:25:13.447Z,92.77
2019-05-10T20:27:42.052Z,92.78
2019-05-10T20:30:11.738Z,93.14
2019-05-10T20:32:40.329Z,93.12
2019-05-10T20:35:09.431Z,92.93
2019-05-10T20:37:38.053Z,92.60
2019-05-10T20:40:07.898Z,91.33
2019-05-10T20:42:36.437Z,89.32
2019-05-10T20:45:08.437Z,89.70
2019-05-10T20:47:36.279Z,90.22
2019-05-10T20:50:05.856Z,90.07
2019-05-10T20:52:34.524Z,90.17
2019-05-10T20:55:07.220Z,90.33
2019-05-10T20:57:35.847Z,90.11
2019-05-10T21:00:08.968Z,90.09
2019-05-10T21:02:37.587Z,90.64
2019-05-10T21:05:07.732Z,91.16
2019-05-10T21:07:36.360Z,91.21
2019-05-10T21:10:06.333Z,91.97
2019-05-10T21:12:34.919Z,92.07
2019-05-10T21:15:05.511Z,92.78
2019-05-10T21:17:34.083Z,92.91
2019-05-10T21:20:02.694Z,92.62
2019-05-10T21:22:31.356Z,91.51
2019-05-10T21:25:00.211Z,92.39
2019-05-10T21:27:28.920Z,92.37
2019-05-10T21:29:57.732Z,93.43
2019-05-10T21:32:26.455Z,93.93
2019-05-10T21:34:55.431Z,94.21
2019-05-10T21:37:24.727Z,93.89
2019-05-10T21:39:54.411Z,93.23
2019-05-10T21:42:24.599Z,93.04
2019-05-10T21:44:53.752Z,93.21
2019-05-10T21:47:22.471Z,93.42
2019-05-10T21:49:51.214Z,92.91
2019-05-10T21:52:20.069Z,92.45
2019-05-10T21:54:49.210Z,92.38
2019-05-10T21:57:17.952Z,92.80
2019-05-10T21:59:46.926Z,92.91
2019-05-10T22:02:15.850Z,91.54
2019-05-10T22:04:47.999Z,91.95
2019-05-10T22:07:15.496Z,92.28
2019-05-10T22:09:44.066Z,91.58
2019-05-10T22:12:12.833Z,92.10
2019-05-10T22:14:41.654Z,92.09
2019-05-10T22:17:10.492Z,92.84
2019-05-10T22:19:39.189Z,92.86
2019-05-10T22:22:07.808Z,93.06
2019-05-10T22:24:36.431Z,93.28
2019-05-10T22:27:05.370Z,93.68
2019-05-10T22:29:34.032Z,94.07
2019-05-10T22:32:02.676Z,93.75
2019-05-10T22:34:33.090Z,93.80
2019-05-10T22:37:04.566Z,93.68
2019-05-10T22:39:36.072Z,94.09
2019-05-10T22:42:04.856Z,94.49
2019-05-10T22:44:33.487Z,94.69
2019-05-10T22:47:02.142Z,94.69
2019-05-10T22:49:33.562Z,94.56
2019-05-10T22:52:02.405Z,94.48
2019-05-10T22:54:31.333Z,94.64
2019-05-10T22:56:59.920Z,94.70
2019-05-10T22:59:28.559Z,94.79
2019-05-10T23:01:57.265Z,95.24
2019-05-10T23:04:25.989Z,95.65
2019-05-10T23:06:54.712Z,95.51
2019-05-10T23:09:25.161Z,95.47
2019-05-10T23:11:54.121Z,95.89
2019-05-10T23:14:22.771Z,96.42
2019-05-10T23:16:51.867Z,96.84
2019-05-10T23:19:20.797Z,97.21
2019-05-10T23:21:49.514Z,97.46
2019-05-10T23:24:18.218Z,97.67
2019-05-10T23:26:46.940Z,97.66
2019-05-10T23:29:15.599Z,97.01
2019-05-10T23:31:44.382Z,96.53
2019-05-10T23:34:13.097Z,95.98
2019-05-10T23:36:41.822Z,96.09
2019-05-10T23:39:11.281Z,96.60
2019-05-10T23:41:39.989Z,97.40
2019-05-10T23:44:09.009Z,97.77
2019-05-10T23:46:37.889Z,97.97
2019-05-10T23:49:06.441Z,98.23
2019-05-10T23:51:35.279Z,98.21
2019-05-10T23:54:03.994Z,97.87
2019-05-10T23:56:32.659Z,97.41
2019-05-10T23:59:01.308Z,97.09
